createdAt,value
2023-03-03T00:00:58.297Z,48.80
2023-03-03T00:03:30.144Z,53.20
2023-03-03T00:06:04.560Z,53.10
2023-03-03T00:08:38.456Z,59.00
2023-03-03T00:11:14.356Z,49.25
2023-03-03T00:13:49.321Z,47.90
2023-03-03T00:16:24.380Z,53.35
2023-03-03T00:21:51.412Z,50.83
2023-03-03T00:24:37.429Z,52.60
2023-03-03T00:27:31.663Z,53.33
2023-03-03T00:30:05.152Z,50.95
2023-03-03T00:32:46.999Z,48.47
2023-03-03T00:35:27.290Z,53.53
2023-03-03T00:38:12.852Z,55.75
2023-03-03T00:40:45.117Z,54.97
2023-03-03T00:43:24.918Z,54.42
2023-03-03T00:45:59.460Z,52.63
2023-03-03T00:48:42.858Z,45.75
2023-03-03T00:51:23.565Z,59.42
2023-03-03T00:54:23.138Z,52.53
2023-03-03T00:56:54.888Z,49.33
2023-03-03T00:59:26.828Z,56.90
2023-03-03T01:01:58.705Z,53.78
2023-03-03T01:04:30.748Z,53.10
2023-03-03T01:07:02.752Z,50.88
2023-03-03T01:09:34.445Z,51.90
2023-03-03T01:12:06.415Z,53.53
2023-03-03T01:14:39.383Z,52.17
2023-03-03T01:17:14.881Z,56.78
2023-03-03T01:19:46.726Z,46.80
2023-03-03T01:22:18.770Z,50.47
2023-03-03T01:24:50.517Z,48.60
2023-03-03T01:27:25.321Z,56.08
2023-03-03T01:32:29.316Z,48.83
2023-03-03T01:35:01.218Z,51.47
2023-03-03T01:37:36.129Z,51.67
2023-03-03T01:40:16.198Z,54.20
2023-03-03T01:42:47.995Z,54.35
2023-03-03T01:45:27.162Z,52.60
2023-03-03T01:48:07.283Z,52.75
2023-03-03T01:50:47.816Z,51.70
2023-03-03T01:53:23.905Z,62.67
2023-03-03T01:55:56.450Z,49.83
2023-03-03T01:58:31.328Z,57.15
2023-03-03T02:03:39.250Z,55.28
2023-03-03T02:06:15.677Z,56.40
2023-03-03T02:09:13.584Z,53.47
2023-03-03T02:11:47.485Z,51.53
2023-03-03T02:14:19.583Z,59.97
2023-03-03T02:16:51.829Z,53.78
2023-03-03T02:20:00.210Z,50.60
2023-03-03T02:22:51.489Z,50.97
2023-03-03T02:25:51.475Z,57.85
2023-03-03T02:28:32.566Z,55.67
2023-03-03T02:33:52.995Z,55.25
2023-03-03T02:36:36.632Z,58.33
2023-03-03T02:39:18.192Z,52.28
2023-03-03T02:42:11.955Z,52.90
2023-03-03T02:44:53.742Z,55.13
2023-03-03T02:49:57.526Z,55.17
2023-03-03T02:52:29.276Z,53.78
2023-03-03T02:57:37.019Z,61.35
2023-03-03T03:00:12.299Z,60.15
2023-03-03T03:02:44.441Z,57.30
2023-03-03T03:05:19.491Z,56.20
2023-03-03T03:07:51.301Z,55.97
2023-03-03T03:10:26.697Z,53.58
2023-03-03T03:15:30.227Z,55.10
2023-03-03T03:18:04.144Z,59.33
2023-03-03T03:20:40.110Z,55.72
2023-03-03T03:23:13.104Z,57.15
2023-03-03T03:25:47.640Z,56.55
2023-03-03T03:28:26.666Z,62.88
2023-03-03T03:31:00.749Z,61.33
2023-03-03T03:33:35.302Z,56.03
2023-03-03T03:36:09.199Z,61.22
2023-03-03T03:38:40.994Z,54.70
2023-03-03T03:41:14.271Z,61.78
2023-03-03T03:43:45.999Z,58.05
2023-03-03T03:46:17.850Z,60.78
2023-03-03T03:48:49.660Z,56.40
2023-03-03T03:51:24.531Z,63.35
2023-03-03T03:53:58.476Z,60.80
2023-03-03T03:56:30.406Z,62.22
2023-03-03T03:59:07.256Z,53.45
2023-03-03T04:01:39.520Z,60.88
2023-03-03T04:04:11.445Z,60.08
2023-03-03T04:06:44.206Z,57.65
2023-03-03T04:09:17.031Z,55.75
2023-03-03T04:11:53.482Z,56.53
2023-03-03T04:14:26.495Z,55.35
2023-03-03T04:17:08.882Z,57.90
2023-03-03T04:19:40.703Z,58.65
2023-03-03T04:22:13.716Z,54.83
2023-03-03T04:24:45.692Z,58.08
2023-03-03T04:27:17.508Z,52.65
2023-03-03T04:29:49.714Z,64.82
2023-03-03T04:32:24.414Z,62.78
2023-03-03T04:35:21.562Z,59.95
2023-03-03T04:37:56.302Z,62.55
2023-03-03T04:40:33.917Z,62.70
2023-03-03T04:43:07.747Z,55.90
2023-03-03T04:45:40.237Z,58.03
2023-03-03T04:48:15.299Z,65.90
2023-03-03T04:53:19.169Z,65.30
2023-03-03T04:55:53.964Z,68.37
2023-03-03T04:58:26.685Z,72.78
2023-03-03T05:01:00.603Z,65.45
2023-03-03T05:03:37.868Z,67.70
2023-03-03T05:06:09.714Z,63.67
2023-03-03T05:08:43.558Z,62.70
2023-03-03T05:11:16.178Z,61.73
2023-03-03T05:13:48.034Z,65.18
2023-03-03T05:16:25.895Z,65.85
2023-03-03T05:18:57.853Z,60.33
2023-03-03T05:21:29.848Z,58.08
2023-03-03T05:24:01.683Z,63.95
2023-03-03T05:26:33.640Z,64.00
2023-03-03T05:29:06.895Z,60.65
2023-03-03T05:31:39.678Z,63.83
2023-03-03T05:34:11.542Z,61.78
2023-03-03T05:36:43.246Z,65.63
2023-03-03T05:39:14.977Z,58.90
2023-03-03T05:41:46.813Z,60.45
2023-03-03T05:44:20.605Z,62.30
2023-03-03T05:46:52.586Z,48.78
2023-03-03T05:49:24.791Z,60.35
2023-03-03T05:51:56.477Z,61.80
2023-03-03T05:54:31.111Z,59.00
2023-03-03T05:59:35.038Z,64.03
2023-03-03T06:02:07.703Z,62.00
2023-03-03T06:04:43.492Z,67.70
2023-03-03T06:07:15.230Z,56.67
2023-03-03T06:09:47.016Z,67.65
2023-03-03T06:12:18.839Z,61.40
2023-03-03T06:14:52.194Z,66.28
2023-03-03T06:17:25.288Z,66.53
2023-03-03T06:19:58.139Z,57.35
2023-03-03T06:25:03.934Z,55.22
2023-03-03T06:27:36.229Z,55.08
2023-03-03T06:30:14.502Z,51.10
2023-03-03T06:32:46.667Z,47.83
2023-03-03T06:35:18.564Z,48.95
2023-03-03T06:37:50.933Z,45.50
2023-03-03T06:40:23.338Z,45.85
2023-03-03T06:42:56.596Z,47.30
2023-03-03T06:45:28.354Z,51.65
2023-03-03T06:48:00.266Z,48.70
2023-03-03T06:50:32.118Z,47.67
2023-03-03T06:53:15.578Z,47.25
2023-03-03T06:55:47.548Z,44.95
2023-03-03T06:58:21.845Z,47.58
2023-03-03T07:01:01.725Z,49.28
2023-03-03T07:03:34.803Z,47.28
2023-03-03T07:06:22.277Z,49.83
2023-03-03T07:08:55.527Z,55.53
2023-03-03T07:11:27.384Z,54.38
2023-03-03T07:13:59.187Z,54.50
2023-03-03T07:16:31.143Z,55.40
2023-03-03T07:19:05.307Z,56.55
2023-03-03T07:21:41.836Z,52.38
2023-03-03T07:24:27.226Z,55.55
2023-03-03T07:27:17.490Z,55.90
2023-03-03T07:29:51.827Z,53.60
2023-03-03T07:32:26.681Z,53.45
2023-03-03T07:37:42.444Z,52.20
2023-03-03T07:40:49.581Z,57.38
2023-03-03T07:43:39.067Z,53.25
2023-03-03T07:46:17.723Z,50.45
2023-03-03T07:48:50.370Z,49.58
2023-03-03T07:51:27.727Z,47.53
2023-03-03T07:54:28.717Z,46.65
2023-03-03T07:57:31.990Z,45.47
2023-03-03T08:00:15.036Z,50.65
2023-03-03T08:03:03.734Z,43.38
2023-03-03T08:05:40.865Z,47.17
2023-03-03T08:08:22.738Z,40.35
2023-03-03T08:10:56.252Z,42.42
2023-03-03T08:13:42.142Z,39.65
2023-03-03T08:16:13.881Z,38.90
2023-03-03T08:18:51.208Z,37.13
2023-03-03T08:21:26.757Z,37.40
2023-03-03T08:23:58.525Z,35.50
2023-03-03T08:26:30.241Z,34.45
2023-03-03T08:29:02.275Z,34.33
2023-03-03T08:31:41.606Z,36.17
2023-03-03T08:34:13.823Z,32.53
2023-03-03T08:36:47.428Z,33.30
2023-03-03T08:39:19.185Z,33.83
2023-03-03T08:41:50.999Z,33.08
2023-03-03T08:44:22.737Z,35.22
2023-03-03T08:46:54.934Z,30.55
2023-03-03T08:49:26.633Z,32.10
2023-03-03T08:51:59.144Z,32.65
2023-03-03T08:54:32.986Z,33.30
2023-03-03T08:57:08.070Z,33.15
2023-03-03T08:59:39.797Z,36.03
2023-03-03T09:02:11.604Z,33.90
2023-03-03T09:04:43.606Z,34.95
2023-03-03T09:07:15.357Z,35.08
2023-03-03T09:09:47.397Z,34.83
2023-03-03T09:12:36.087Z,33.42
2023-03-03T09:15:24.598Z,33.80
2023-03-03T09:18:22.764Z,31.67
2023-03-03T09:20:57.899Z,28.63
2023-03-03T09:23:37.335Z,30.33
2023-03-03T09:26:42.632Z,32.95
2023-03-03T09:29:14.279Z,30.90
2023-03-03T09:31:48.441Z,32.58
2023-03-03T09:34:42.824Z,29.65
2023-03-03T09:37:32.657Z,31.00
2023-03-03T09:40:31.768Z,29.60
2023-03-03T09:43:19.817Z,28.05
2023-03-03T09:46:08.358Z,35.10
2023-03-03T09:48:56.435Z,24.25
2023-03-03T09:51:57.872Z,22.67
2023-03-03T09:54:50.409Z,22.10
2023-03-03T09:58:04.472Z,25.60
2023-03-03T10:00:44.336Z,25.05
2023-03-03T10:03:56.233Z,26.55
2023-03-03T10:06:59.267Z,22.27
2023-03-03T10:09:33.738Z,26.40
2023-03-03T10:12:44.310Z,25.95
2023-03-03T10:15:30.494Z,22.77
2023-03-03T10:18:15.548Z,25.77
2023-03-03T10:21:18.245Z,29.08
2023-03-03T10:24:30.023Z,24.42
2023-03-03T10:30:42.698Z,19.40
2023-03-03T10:33:45.362Z,17.30
2023-03-03T10:36:57.565Z,15.95
2023-03-03T10:40:07.018Z,16.52
2023-03-03T10:42:53.897Z,16.83
2023-03-03T10:45:44.560Z,17.58
2023-03-03T10:49:08.173Z,16.30
2023-03-03T10:51:52.797Z,14.77
2023-03-03T10:55:00.116Z,16.48
2023-03-03T10:57:42.661Z,16.25
2023-03-03T11:00:22.807Z,16.23
2023-03-03T11:03:00.703Z,14.05
2023-03-03T11:05:40.482Z,17.55
2023-03-03T11:08:22.338Z,13.68
2023-03-03T11:11:18.182Z,13.18
2023-03-03T11:14:24.120Z,13.23
2023-03-03T11:17:24.753Z,13.88
2023-03-03T11:20:27.198Z,13.60
2023-03-03T11:23:21.515Z,12.88
2023-03-03T11:26:15.613Z,11.18
2023-03-03T11:29:32.273Z,12.18
2023-03-03T11:32:22.870Z,12.93
2023-03-03T11:35:16.244Z,15.10
2023-03-03T11:37:55.158Z,13.15
2023-03-03T11:40:49.104Z,12.65
2023-03-03T11:43:37.428Z,13.85
2023-03-03T11:46:16.015Z,16.30
2023-03-03T11:48:56.309Z,13.30
2023-03-03T11:51:43.549Z,14.50
2023-03-03T11:54:32.210Z,14.57
2023-03-03T11:57:15.661Z,18.25
2023-03-03T11:59:56.721Z,14.82
2023-03-03T12:02:37.184Z,17.10
2023-03-03T12:05:27.384Z,14.63
2023-03-03T12:08:41.016Z,15.20
2023-03-03T12:11:26.860Z,14.18
2023-03-03T12:14:05.164Z,13.57
2023-03-03T12:16:56.840Z,15.77
2023-03-03T12:19:28.448Z,14.70
2023-03-03T12:22:35.861Z,15.23
2023-03-03T12:25:32.652Z,16.80
2023-03-03T12:30:41.705Z,16.15
2023-03-03T12:33:33.656Z,15.18
2023-03-03T12:36:18.983Z,14.75
2023-03-03T12:39:12.012Z,12.75
2023-03-03T12:42:08.086Z,13.60
2023-03-03T12:44:59.493Z,14.38
2023-03-03T12:47:42.666Z,12.73
2023-03-03T12:50:38.908Z,14.77
2023-03-03T12:53:19.417Z,15.23
2023-03-03T12:56:01.640Z,12.63
2023-03-03T12:59:18.356Z,10.25
2023-03-03T13:02:18.032Z,12.85
2023-03-03T13:05:19.333Z,12.80
2023-03-03T13:08:09.828Z,12.13
2023-03-03T13:10:49.420Z,11.02
2023-03-03T13:13:42.550Z,12.73
2023-03-03T13:16:57.550Z,14.15
2023-03-03T13:19:41.435Z,11.70
2023-03-03T13:22:22.455Z,16.08
2023-03-03T13:25:06.107Z,15.55
2023-03-03T13:27:44.224Z,10.10
2023-03-03T13:30:33.051Z,10.90
2023-03-03T13:33:22.805Z,11.40
2023-03-03T13:36:09.149Z,10.68
2023-03-03T13:38:50.315Z,9.85
2023-03-03T13:41:43.032Z,9.82
2023-03-03T13:44:22.858Z,11.18
2023-03-03T13:47:04.211Z,10.73
2023-03-03T13:50:07.760Z,15.80
2023-03-03T13:52:50.377Z,10.82
2023-03-03T13:55:36.846Z,12.80
2023-03-03T13:58:20.629Z,12.13
2023-03-03T14:01:06.738Z,14.10
2023-03-03T14:03:55.634Z,10.95
2023-03-03T14:06:29.637Z,11.95
2023-03-03T14:09:09.719Z,10.57
2023-03-03T14:12:09.205Z,14.13
2023-03-03T14:14:46.676Z,11.88
2023-03-03T14:17:51.565Z,11.20
2023-03-03T14:20:40.385Z,13.97
2023-03-03T14:23:30.863Z,10.23
2023-03-03T14:26:07.965Z,12.20
2023-03-03T14:28:49.678Z,13.70
2023-03-03T14:31:33.048Z,10.27
2023-03-03T14:34:22.604Z,13.27
2023-03-03T14:37:08.485Z,12.93
2023-03-03T14:39:41.355Z,13.13
2023-03-03T14:42:34.193Z,16.08
2023-03-03T14:45:29.403Z,12.85
2023-03-03T14:48:19.123Z,14.98
2023-03-03T14:51:15.140Z,16.20
2023-03-03T14:53:50.089Z,14.43
2023-03-03T14:56:25.051Z,12.88
2023-03-03T14:59:29.153Z,14.90
2023-03-03T15:02:15.992Z,13.60
2023-03-03T15:04:51.834Z,20.42
2023-03-03T15:07:37.914Z,10.65
2023-03-03T15:10:12.982Z,12.90
2023-03-03T15:12:44.693Z,11.63
2023-03-03T15:15:24.945Z,14.48
2023-03-03T15:18:02.742Z,15.82
2023-03-03T15:20:53.209Z,13.35
2023-03-03T15:23:45.976Z,13.80
2023-03-03T15:26:36.951Z,12.10
2023-03-03T15:29:34.129Z,9.43
2023-03-03T15:32:29.658Z,10.90
2023-03-03T15:35:34.501Z,13.52
2023-03-03T15:38:27.532Z,12.38
2023-03-03T15:41:11.115Z,14.98
2023-03-03T15:44:04.435Z,14.15
2023-03-03T15:47:09.953Z,11.98
2023-03-03T15:50:00.150Z,12.70
2023-03-03T15:53:13.073Z,11.25
2023-03-03T15:56:23.795Z,13.07
2023-03-03T15:58:55.401Z,13.20
2023-03-03T16:01:36.303Z,11.65
2023-03-03T16:04:18.227Z,10.43
2023-03-03T16:07:06.260Z,11.05
2023-03-03T16:10:18.983Z,13.70
2023-03-03T16:12:54.539Z,11.50
2023-03-03T16:15:34.593Z,10.77
2023-03-03T16:18:33.520Z,12.90
2023-03-03T16:21:39.819Z,13.60
2023-03-03T16:24:11.517Z,11.57
2023-03-03T16:26:52.931Z,10.38
2023-03-03T16:29:50.956Z,10.77
2023-03-03T16:32:34.417Z,12.38
2023-03-03T16:35:22.336Z,11.52
2023-03-03T16:38:01.866Z,10.75
2023-03-03T16:40:50.478Z,10.45
2023-03-03T16:43:37.341Z,13.77
2023-03-03T16:46:26.994Z,14.20
2023-03-03T16:49:23.242Z,12.73
2023-03-03T16:52:12.164Z,16.13
2023-03-03T16:55:09.961Z,13.45
2023-03-03T16:58:35.471Z,12.48
2023-03-03T17:01:12.985Z,11.18
2023-03-03T17:03:48.766Z,11.25
2023-03-03T17:06:52.135Z,14.27
2023-03-03T17:09:32.840Z,12.10
2023-03-03T17:12:39.738Z,14.07
2023-03-03T17:15:38.683Z,11.75
2023-03-03T17:18:38.892Z,12.02
2023-03-03T17:21:49.653Z,12.75
2023-03-03T17:24:51.114Z,12.68
2023-03-03T17:27:51.223Z,15.25
2023-03-03T17:30:54.933Z,14.57
2023-03-03T17:34:04.890Z,13.48
2023-03-03T17:37:04.433Z,13.07
2023-03-03T17:40:13.760Z,12.90
2023-03-03T17:42:45.370Z,17.10
2023-03-03T17:45:22.177Z,16.05
2023-03-03T17:47:57.414Z,15.60
2023-03-03T17:50:56.996Z,13.98
2023-03-03T17:53:46.687Z,15.25
2023-03-03T17:56:31.445Z,14.35
2023-03-03T17:59:38.817Z,12.80
2023-03-03T18:02:35.371Z,15.45
2023-03-03T18:05:50.078Z,18.42
2023-03-03T18:08:49.900Z,15.70
2023-03-03T18:11:47.951Z,13.57
2023-03-03T18:14:30.168Z,12.98
2023-03-03T18:17:20.506Z,14.40
2023-03-03T18:20:09.632Z,14.40
2023-03-03T18:22:43.046Z,14.73
2023-03-03T18:25:17.895Z,16.75
2023-03-03T18:30:52.366Z,15.07
2023-03-03T18:33:37.401Z,17.77
2023-03-03T18:36:36.381Z,15.50
2023-03-03T18:39:14.164Z,16.17
2023-03-03T18:42:27.400Z,17.35
2023-03-03T18:45:22.987Z,16.80
2023-03-03T18:48:01.199Z,14.80
2023-03-03T18:50:44.271Z,15.48
2023-03-03T18:53:27.421Z,14.05
2023-03-03T18:56:03.954Z,17.35
2023-03-03T18:58:43.382Z,15.63
2023-03-03T19:01:41.599Z,16.80
2023-03-03T19:04:16.499Z,16.85
2023-03-03T19:06:48.134Z,17.42
2023-03-03T19:09:57.469Z,15.48
2023-03-03T19:12:51.801Z,14.73
2023-03-03T19:15:29.753Z,15.88
2023-03-03T19:18:21.149Z,14.85
2023-03-03T19:21:28.427Z,19.33
2023-03-03T19:24:03.663Z,17.25
2023-03-03T19:26:54.072Z,19.45
2023-03-03T19:29:52.939Z,19.25
2023-03-03T19:32:30.538Z,19.25
2023-03-03T19:35:20.509Z,16.50
2023-03-03T19:38:23.100Z,19.23
2023-03-03T19:41:14.746Z,18.88
2023-03-03T19:44:01.295Z,17.20
2023-03-03T19:47:03.210Z,18.23
2023-03-03T19:49:58.716Z,18.52
2023-03-03T19:52:45.143Z,16.92
2023-03-03T19:55:33.464Z,17.55
2023-03-03T19:58:22.797Z,16.00
2023-03-03T20:01:42.592Z,15.43
2023-03-03T20:04:52.272Z,18.67
2023-03-03T20:07:53.010Z,16.80
2023-03-03T20:11:02.709Z,23.95
2023-03-03T20:14:08.261Z,17.90
2023-03-03T20:16:42.819Z,20.05
2023-03-03T20:19:32.087Z,18.10
2023-03-03T20:22:34.748Z,18.65
2023-03-03T20:26:04.682Z,16.55
2023-03-03T20:28:41.121Z,19.20
2023-03-03T20:31:44.202Z,17.88
2023-03-03T20:34:38.504Z,19.73
2023-03-03T20:37:46.636Z,18.63
2023-03-03T20:40:51.895Z,18.52
2023-03-03T20:43:50.526Z,19.00
2023-03-03T20:46:37.427Z,21.05
2023-03-03T20:49:30.843Z,19.90
2023-03-03T20:52:18.850Z,24.35
2023-03-03T20:55:09.555Z,18.65
2023-03-03T20:58:00.227Z,20.75
2023-03-03T21:00:57.528Z,21.10
2023-03-03T21:03:38.889Z,18.15
2023-03-03T21:06:21.067Z,19.98
2023-03-03T21:08:58.941Z,19.67
2023-03-03T21:11:30.630Z,20.90
2023-03-03T21:14:32.361Z,17.73
2023-03-03T21:17:30.757Z,17.75
2023-03-03T21:20:28.032Z,18.10
2023-03-03T21:23:04.588Z,17.27
2023-03-03T21:25:44.117Z,16.42
2023-03-03T21:28:33.982Z,20.73
2023-03-03T21:31:20.126Z,18.45
2023-03-03T21:33:57.258Z,20.13
2023-03-03T21:36:35.250Z,20.40
2023-03-03T21:39:46.885Z,17.83
2023-03-03T21:42:42.447Z,22.58
2023-03-03T21:45:16.476Z,20.02
2023-03-03T21:47:48.364Z,21.42
2023-03-03T21:50:22.992Z,19.88
2023-03-03T21:52:56.640Z,19.80
2023-03-03T21:55:28.668Z,23.70
2023-03-03T21:58:00.375Z,21.13
2023-03-03T22:00:32.104Z,21.70
2023-03-03T22:03:04.061Z,23.23
2023-03-03T22:05:35.928Z,21.75
2023-03-03T22:08:08.008Z,20.63
2023-03-03T22:10:42.405Z,18.90
2023-03-03T22:13:20.091Z,20.13
2023-03-03T22:15:53.172Z,20.73
2023-03-03T22:18:27.913Z,23.98
2023-03-03T22:20:59.659Z,22.20
2023-03-03T22:23:34.548Z,21.40
2023-03-03T22:26:06.621Z,21.20
2023-03-03T22:28:38.335Z,23.10
2023-03-03T22:31:10.209Z,19.13
2023-03-03T22:33:42.148Z,24.00
2023-03-03T22:36:19.047Z,21.40
2023-03-03T22:38:50.916Z,26.95
2023-03-03T22:41:23.489Z,25.52
2023-03-03T22:43:55.209Z,25.00
2023-03-03T22:46:26.972Z,22.85
2023-03-03T22:48:59.529Z,24.50
2023-03-03T22:51:31.559Z,23.45
2023-03-03T22:54:03.465Z,22.27
2023-03-03T22:56:35.442Z,24.42
2023-03-03T22:59:10.060Z,24.17
2023-03-03T23:01:41.908Z,24.13
2023-03-03T23:04:13.660Z,26.92
2023-03-03T23:06:45.655Z,23.42
2023-03-03T23:09:18.897Z,24.45
2023-03-03T23:11:52.085Z,23.10
2023-03-03T23:14:23.808Z,24.33
2023-03-03T23:16:56.075Z,26.42
2023-03-03T23:19:29.988Z,25.25
2023-03-03T23:22:01.726Z,22.50
2023-03-03T23:24:33.484Z,25.42
2023-03-03T23:27:05.212Z,23.25
2023-03-03T23:29:38.359Z,27.35
2023-03-03T23:32:10.174Z,22.65
2023-03-03T23:34:41.952Z,25.17
2023-03-03T23:37:14.007Z,25.02
2023-03-03T23:39:49.446Z,26.17
2023-03-03T23:42:22.548Z,24.63
2023-03-03T23:44:54.540Z,24.45
2023-03-03T23:47:26.536Z,28.10
2023-03-03T23:49:58.260Z,24.35
2023-03-03T23:52:30.273Z,22.15
2023-03-03T23:55:03.181Z,23.85
2023-03-03T23:57:35.054Z,25.30
